Ana Sayfa
METAR-TAF:

METAR-TAF

Havaalanları :

Emporia Municipal Airport

Emporia, Kansas, Amerika Birleşik Devletleri

Enlem: 38-19-44N, Boylam: 096-11-38W, yükseklik: 367 m

Güncel hava durumu gözlemi

Rapor saat 04:53 UTC de 48 dakika önce yapıldı.
Rüzgar güney/güneydoğudan 7 kt
Sıcaklık 21°C
Nem 83%
Basınç 1014 hPa
Görüş mesafesi: 16.1 km
Açık gökyüzü

METAR: KEMP 190453Z AUTO 16007KT 10SM CLR 21/18 A2993 RMK AO2 SLP124 T02110178

Saat: 00:41 (05:41 UTC)


TAF: eksik

4.000'den fazla havaalanı için hava durumu gözlemleri ve tahminleri (METAR ve TAF raporları).

Kullanılabilir istasyonlar harita üzerinde sarı ve kırmızı noktalarla gösterilir.

İstasyonun adını görmek için fareyi noktanın üzerinde gezdirin.

Sonrasında hava gözlem ve tahminlerini görmek için tıklayın.

Haritayı değiştirmek için: yaklaştırmak için siyah artı işaretli yeşil düğmeye ve uzaklaştırmak için de eksi işaretli düğmeye hızla tıklayın; bitişik haritalar için yeşil okları kullanın.


METAR-TAF: